sensor_id;sensor_type;location;lat;lon;timestamp;pressure;altitude;pressure_sealevel;temperature;humidity
6778;BME280;3426;52.244;10.534;2022-12-04T00:01:07;101232.66;;;1.27;83.01
6778;BME280;3426;52.244;10.534;2022-12-04T00:03:34;101224.97;;;1.05;84.67
6778;BME280;3426;52.244;10.534;2022-12-04T00:06:12;101226.53;;;1.29;85.92
6778;BME280;3426;52.244;10.534;2022-12-04T00:08:39;101223.97;;;2.23;81.98
6778;BME280;3426;52.244;10.534;2022-12-04T00:11:07;101218.53;;;2.42;80.82
6778;BME280;3426;52.244;10.534;2022-12-04T00:13:34;101222.28;;;1.19;83.71
6778;BME280;3426;52.244;10.534;2022-12-04T00:16:06;101223.81;;;1.46;86.05
6778;BME280;3426;52.244;10.534;2022-12-04T00:18:34;101212.63;;;2.21;81.34
6778;BME280;3426;52.244;10.534;2022-12-04T00:21:04;101218.34;;;0.33;88.11
6778;BME280;3426;52.244;10.534;2022-12-04T00:23:32;101224.22;;;0.82;86.61
6778;BME280;3426;52.244;10.534;2022-12-04T00:26:01;101212.25;;;1.73;84.51
6778;BME280;3426;52.244;10.534;2022-12-04T00:28:27;101207.00;;;1.78;84.94
6778;BME280;3426;52.244;10.534;2022-12-04T00:30:54;101213.31;;;1.51;85.74
6778;BME280;3426;52.244;10.534;2022-12-04T00:33:21;101208.56;;;0.84;87.33
6778;BME280;3426;52.244;10.534;2022-12-04T00:35:48;101204.94;;;1.11;85.80
6778;BME280;3426;52.244;10.534;2022-12-04T00:38:21;101209.66;;;0.37;88.75
6778;BME280;3426;52.244;10.534;2022-12-04T00:40:49;101209.06;;;1.41;85.77
6778;BME280;3426;52.244;10.534;2022-12-04T00:43:16;101191.44;;;1.67;84.11
6778;BME280;3426;52.244;10.534;2022-12-04T00:45:42;101201.28;;;1.35;85.41
6778;BME280;3426;52.244;10.534;2022-12-04T00:48:09;101201.00;;;1.68;84.75
6778;BME280;3426;52.244;10.534;2022-12-04T00:50:36;101211.66;;;1.42;84.71
6778;BME280;3426;52.244;10.534;2022-12-04T00:53:03;101198.97;;;1.99;84.02
6778;BME280;3426;52.244;10.534;2022-12-04T00:55:29;101201.69;;;1.87;83.03
6778;BME280;3426;52.244;10.534;2022-12-04T00:57:56;101204.19;;;1.98;82.42
6778;BME280;3426;52.244;10.534;2022-12-04T01:00:25;101211.63;;;1.47;83.21
6778;BME280;3426;52.244;10.534;2022-12-04T01:02:51;101206.31;;;2.42;82.12
6778;BME280;3426;52.244;10.534;2022-12-04T01:05:18;101216.00;;;1.43;82.94
6778;BME280;3426;52.244;10.534;2022-12-04T01:07:45;101204.00;;;2.15;82.68
6778;BME280;3426;52.244;10.534;2022-12-04T01:10:12;101198.09;;;1.97;81.74
6778;BME280;3426;52.244;10.534;2022-12-04T01:12:38;101204.34;;;1.81;83.93
6778;BME280;3426;52.244;10.534;2022-12-04T01:15:05;101199.91;;;1.94;81.73
6778;BME280;3426;52.244;10.534;2022-12-04T01:17:32;101204.66;;;1.46;85.49
6778;BME280;3426;52.244;10.534;2022-12-04T01:19:58;101204.66;;;1.49;82.85
6778;BME280;3426;52.244;10.534;2022-12-04T01:22:24;101187.69;;;1.93;82.92
6778;BME280;3426;52.244;10.534;2022-12-04T01:24:55;101185.03;;;1.99;81.71
6778;BME280;3426;52.244;10.534;2022-12-04T01:27:22;101194.47;;;1.15;86.54
6778;BME280;3426;52.244;10.534;2022-12-04T01:29:49;101187.38;;;1.29;85.56
6778;BME280;3426;52.244;10.534;2022-12-04T01:32:15;101188.69;;;1.82;84.66
6778;BME280;3426;52.244;10.534;2022-12-04T01:34:42;101193.75;;;0.93;86.91
6778;BME280;3426;52.244;10.534;2022-12-04T01:37:08;101185.81;;;1.09;87.30
6778;BME280;3426;52.244;10.534;2022-12-04T01:39:35;101194.47;;;1.12;87.31
6778;BME280;3426;52.244;10.534;2022-12-04T01:42:03;101175.69;;;1.76;84.20
6778;BME280;3426;52.244;10.534;2022-12-04T01:44:30;101188.63;;;0.75;87.66
6778;BME280;3426;52.244;10.534;2022-12-04T01:46:59;101181.53;;;0.98;86.63
6778;BME280;3426;52.244;10.534;2022-12-04T01:49:39;101178.81;;;2.09;84.49
6778;BME280;3426;52.244;10.534;2022-12-04T01:52:14;101169.31;;;2.02;82.29
6778;BME280;3426;52.244;10.534;2022-12-04T01:54:44;101177.28;;;0.84;86.88
6778;BME280;3426;52.244;10.534;2022-12-04T01:57:17;101174.59;;;1.99;84.44
6778;BME280;3426;52.244;10.534;2022-12-04T01:59:52;101176.22;;;1.12;86.03
6778;BME280;3426;52.244;10.534;2022-12-04T02:02:24;101175.22;;;1.31;85.53
6778;BME280;3426;52.244;10.534;2022-12-04T02:04:53;101175.16;;;1.38;86.06
6778;BME280;3426;52.244;10.534;2022-12-04T02:07:19;101171.03;;;1.11;87.32
6778;BME280;3426;52.244;10.534;2022-12-04T02:09:46;101172.66;;;2.16;83.20
6778;BME280;3426;52.244;10.534;2022-12-04T02:12:31;101164.13;;;2.00;84.48
6778;BME280;3426;52.244;10.534;2022-12-04T02:17:53;101170.69;;;1.50;86.05
6778;BME280;3426;52.244;10.534;2022-12-04T02:23:41;101167.41;;;1.27;87.33
6778;BME280;3426;52.244;10.534;2022-12-04T02:29:06;101171.13;;;1.97;84.55
6778;BME280;3426;52.244;10.534;2022-12-04T02:37:27;101160.44;;;1.29;87.88
6778;BME280;3426;52.244;10.534;2022-12-04T02:40:11;101160.50;;;2.12;84.36
6778;BME280;3426;52.244;10.534;2022-12-04T02:42:59;101151.31;;;0.68;88.22
6778;BME280;3426;52.244;10.534;2022-12-04T02:45:32;101165.97;;;0.83;88.20
6778;BME280;3426;52.244;10.534;2022-12-04T02:48:04;101146.19;;;1.67;87.06
6778;BME280;3426;52.244;10.534;2022-12-04T02:50:36;101153.28;;;1.52;84.44
6778;BME280;3426;52.244;10.534;2022-12-04T02:53:08;101147.25;;;1.46;86.48
6778;BME280;3426;52.244;10.534;2022-12-04T02:55:46;101156.13;;;1.26;88.11
6778;BME280;3426;52.244;10.534;2022-12-04T02:58:19;101159.63;;;2.13;83.94
6778;BME280;3426;52.244;10.534;2022-12-04T03:00:47;101164.72;;;1.36;86.42
6778;BME280;3426;52.244;10.534;2022-12-04T03:03:25;101145.56;;;2.23;82.98
6778;BME280;3426;52.244;10.534;2022-12-04T03:06:03;101154.94;;;2.39;82.61
6778;BME280;3426;52.244;10.534;2022-12-04T03:08:38;101152.97;;;1.81;82.95
6778;BME280;3426;52.244;10.534;2022-12-04T03:11:05;101147.94;;;1.66;83.84
6778;BME280;3426;52.244;10.534;2022-12-04T03:13:39;101153.13;;;1.68;84.61
6778;BME280;3426;52.244;10.534;2022-12-04T03:16:30;101141.84;;;2.41;82.69
6778;BME280;3426;52.244;10.534;2022-12-04T03:19:09;101151.56;;;1.47;86.02
6778;BME280;3426;52.244;10.534;2022-12-04T03:21:43;101147.41;;;2.13;83.91
6778;BME280;3426;52.244;10.534;2022-12-04T03:24:13;101149.00;;;1.44;84.72
6778;BME280;3426;52.244;10.534;2022-12-04T03:26:50;101153.88;;;0.76;88.09
6778;BME280;3426;52.244;10.534;2022-12-04T03:29:31;101150.31;;;0.88;88.38
6778;BME280;3426;52.244;10.534;2022-12-04T03:32:20;101148.56;;;0.91;88.17
6778;BME280;3426;52.244;10.534;2022-12-04T03:35:02;101135.94;;;2.25;83.57
6778;BME280;3426;52.244;10.534;2022-12-04T03:37:58;101131.09;;;1.01;86.35
6778;BME280;3426;52.244;10.534;2022-12-04T03:43:03;101134.44;;;1.18;86.00
6778;BME280;3426;52.244;10.534;2022-12-04T03:45:44;101137.63;;;1.54;86.20
6778;BME280;3426;52.244;10.534;2022-12-04T03:48:23;101127.41;;;2.12;84.27
6778;BME280;3426;52.244;10.534;2022-12-04T03:51:03;101125.06;;;2.59;80.94
6778;BME280;3426;52.244;10.534;2022-12-04T03:53:38;101137.97;;;2.02;81.45
6778;BME280;3426;52.244;10.534;2022-12-04T03:56:13;101136.72;;;2.33;81.60
6778;BME280;3426;52.244;10.534;2022-12-04T03:58:45;101140.47;;;1.26;84.89
6778;BME280;3426;52.244;10.534;2022-12-04T04:01:16;101129.31;;;2.68;81.94
6778;BME280;3426;52.244;10.534;2022-12-04T04:03:48;101130.72;;;1.48;84.92
6778;BME280;3426;52.244;10.534;2022-12-04T04:06:27;101138.91;;;1.01;87.02
6778;BME280;3426;52.244;10.534;2022-12-04T04:08:59;101126.66;;;2.01;83.72
6778;BME280;3426;52.244;10.534;2022-12-04T04:11:34;101130.44;;;2.47;81.51
6778;BME280;3426;52.244;10.534;2022-12-04T04:14:17;101123.97;;;2.07;83.19
6778;BME280;3426;52.244;10.534;2022-12-04T04:17:08;101127.06;;;1.65;85.82
6778;BME280;3426;52.244;10.534;2022-12-04T04:20:06;101128.00;;;1.59;85.44
6778;BME280;3426;52.244;10.534;2022-12-04T04:22:55;101125.09;;;1.85;83.80
6778;BME280;3426;52.244;10.534;2022-12-04T04:25:43;101122.81;;;2.31;82.42
6778;BME280;3426;52.244;10.534;2022-12-04T04:28:30;101130.84;;;2.16;82.49
6778;BME280;3426;52.244;10.534;2022-12-04T04:31:27;101117.69;;;2.85;79.67
6778;BME280;3426;52.244;10.534;2022-12-04T04:33:58;101123.47;;;3.06;79.11
6778;BME280;3426;52.244;10.534;2022-12-04T04:39:51;101125.56;;;2.85;79.70
6778;BME280;3426;52.244;10.534;2022-12-04T04:42:27;101134.94;;;2.35;80.40
6778;BME280;3426;52.244;10.534;2022-12-04T04:45:08;101131.88;;;2.69;80.66
6778;BME280;3426;52.244;10.534;2022-12-04T04:47:44;101134.22;;;2.24;81.04
6778;BME280;3426;52.244;10.534;2022-12-04T04:50:14;101125.81;;;2.67;79.68
6778;BME280;3426;52.244;10.534;2022-12-04T04:52:44;101119.47;;;2.85;79.06
6778;BME280;3426;52.244;10.534;2022-12-04T04:55:13;101127.56;;;2.65;80.14
6778;BME280;3426;52.244;10.534;2022-12-04T04:57:41;101126.66;;;2.69;79.74
6778;BME280;3426;52.244;10.534;2022-12-04T05:00:14;101123.91;;;2.78;79.10
6778;BME280;3426;52.244;10.534;2022-12-04T05:02:41;101121.97;;;2.29;81.21
6778;BME280;3426;52.244;10.534;2022-12-04T05:05:08;101128.53;;;2.61;79.90
6778;BME280;3426;52.244;10.534;2022-12-04T05:07:35;101135.09;;;2.89;79.43
6778;BME280;3426;52.244;10.534;2022-12-04T05:10:02;101138.78;;;2.75;78.59
6778;BME280;3426;52.244;10.534;2022-12-04T05:12:28;101138.50;;;2.33;79.36
6778;BME280;3426;52.244;10.534;2022-12-04T05:14:54;101137.72;;;2.86;79.56
6778;BME280;3426;52.244;10.534;2022-12-04T05:17:21;101150.06;;;2.78;78.16
6778;BME280;3426;52.244;10.534;2022-12-04T05:19:48;101141.41;;;2.75;79.12
6778;BME280;3426;52.244;10.534;2022-12-04T05:22:30;101138.19;;;3.14;77.97
6778;BME280;3426;52.244;10.534;2022-12-04T05:24:57;101137.88;;;2.11;82.52
6778;BME280;3426;52.244;10.534;2022-12-04T05:27:25;101137.91;;;2.08;82.00
6778;BME280;3426;52.244;10.534;2022-12-04T05:29:53;101131.91;;;1.98;82.93
6778;BME280;3426;52.244;10.534;2022-12-04T05:32:22;101128.13;;;1.45;84.39
6778;BME280;3426;52.244;10.534;2022-12-04T05:34:50;101131.31;;;1.76;85.42
6778;BME280;3426;52.244;10.534;2022-12-04T05:37:17;101120.50;;;2.07;84.39
6778;BME280;3426;52.244;10.534;2022-12-04T05:39:44;101121.66;;;1.80;84.38
6778;BME280;3426;52.244;10.534;2022-12-04T05:42:11;101119.41;;;1.48;84.90
6778;BME280;3426;52.244;10.534;2022-12-04T05:44:38;101126.84;;;1.84;85.86
6778;BME280;3426;52.244;10.534;2022-12-04T05:47:05;101124.50;;;2.35;82.27
6778;BME280;3426;52.244;10.534;2022-12-04T05:49:32;101119.13;;;2.46;83.01
6778;BME280;3426;52.244;10.534;2022-12-04T05:52:00;101123.63;;;1.59;85.93
6778;BME280;3426;52.244;10.534;2022-12-04T05:54:27;101133.59;;;1.15;85.16
6778;BME280;3426;52.244;10.534;2022-12-04T05:56:53;101128.06;;;1.51;86.38
6778;BME280;3426;52.244;10.534;2022-12-04T05:59:20;101123.72;;;1.47;85.21
6778;BME280;3426;52.244;10.534;2022-12-04T06:01:47;101126.69;;;1.06;86.24
6778;BME280;3426;52.244;10.534;2022-12-04T06:04:13;101128.00;;;1.59;86.25
6778;BME280;3426;52.244;10.534;2022-12-04T06:06:40;101143.53;;;1.70;83.77
6778;BME280;3426;52.244;10.534;2022-12-04T06:09:07;101131.56;;;1.49;83.10
6778;BME280;3426;52.244;10.534;2022-12-04T06:11:37;101139.78;;;1.97;83.98
6778;BME280;3426;52.244;10.534;2022-12-04T06:14:06;101135.78;;;1.65;85.04
6778;BME280;3426;52.244;10.534;2022-12-04T06:16:37;101140.19;;;1.57;84.88
6778;BME280;3426;52.244;10.534;2022-12-04T06:19:06;101142.81;;;1.52;85.47
6778;BME280;3426;52.244;10.534;2022-12-04T06:21:35;101137.69;;;1.42;86.23
6778;BME280;3426;52.244;10.534;2022-12-04T06:24:03;101142.47;;;1.89;85.65
6778;BME280;3426;52.244;10.534;2022-12-04T06:26:29;101133.25;;;1.54;86.90
6778;BME280;3426;52.244;10.534;2022-12-04T06:28:57;101139.53;;;1.33;85.44
6778;BME280;3426;52.244;10.534;2022-12-04T06:31:25;101142.50;;;1.88;85.50
6778;BME280;3426;52.244;10.534;2022-12-04T06:33:54;101144.00;;;1.19;87.07
6778;BME280;3426;52.244;10.534;2022-12-04T06:36:22;101137.69;;;1.42;85.78
6778;BME280;3426;52.244;10.534;2022-12-04T06:38:50;101141.00;;;1.62;87.48
6778;BME280;3426;52.244;10.534;2022-12-04T06:41:18;101158.94;;;1.96;84.87
6778;BME280;3426;52.244;10.534;2022-12-04T06:43:45;101154.69;;;0.86;88.28
6778;BME280;3426;52.244;10.534;2022-12-04T06:46:14;101145.38;;;1.60;84.55
6778;BME280;3426;52.244;10.534;2022-12-04T06:48:41;101152.56;;;1.37;87.31
6778;BME280;3426;52.244;10.534;2022-12-04T06:51:19;101155.78;;;2.42;82.55
6778;BME280;3426;52.244;10.534;2022-12-04T06:53:46;101155.25;;;2.81;80.19
6778;BME280;3426;52.244;10.534;2022-12-04T06:56:16;101158.22;;;1.80;84.46
6778;BME280;3426;52.244;10.534;2022-12-04T06:58:48;101160.03;;;2.49;83.99
6778;BME280;3426;52.244;10.534;2022-12-04T07:01:19;101163.44;;;2.57;80.90
6778;BME280;3426;52.244;10.534;2022-12-04T07:03:46;101158.34;;;2.46;81.57
6778;BME280;3426;52.244;10.534;2022-12-04T07:06:25;101158.50;;;1.51;85.42
6778;BME280;3426;52.244;10.534;2022-12-04T07:08:56;101163.19;;;2.06;83.03
6778;BME280;3426;52.244;10.534;2022-12-04T07:11:23;101168.00;;;1.61;85.41
6778;BME280;3426;52.244;10.534;2022-12-04T07:13:50;101168.84;;;2.45;82.24
6778;BME280;3426;52.244;10.534;2022-12-04T07:16:19;101181.47;;;2.78;80.21
6778;BME280;3426;52.244;10.534;2022-12-04T07:18:46;101179.09;;;1.81;85.31
6778;BME280;3426;52.244;10.534;2022-12-04T07:21:17;101173.22;;;2.41;81.96
6778;BME280;3426;52.244;10.534;2022-12-04T07:23:51;101179.06;;;2.60;81.19
6778;BME280;3426;52.244;10.534;2022-12-04T07:26:19;101170.41;;;2.58;81.80
6778;BME280;3426;52.244;10.534;2022-12-04T07:28:46;101166.31;;;2.35;81.26
6778;BME280;3426;52.244;10.534;2022-12-04T07:31:15;101166.13;;;1.77;84.30
6778;BME280;3426;52.244;10.534;2022-12-04T07:33:43;101172.91;;;1.92;83.89
6778;BME280;3426;52.244;10.534;2022-12-04T07:36:15;101172.28;;;2.47;81.42
6778;BME280;3426;52.244;10.534;2022-12-04T07:38:42;101165.13;;;2.61;80.89
6778;BME280;3426;52.244;10.534;2022-12-04T07:41:11;101155.06;;;1.49;81.83
6778;BME280;3426;52.244;10.534;2022-12-04T07:43:38;101178.50;;;1.52;84.71
6778;BME280;3426;52.244;10.534;2022-12-04T07:46:11;101168.09;;;1.53;84.58
6778;BME280;3426;52.244;10.534;2022-12-04T07:48:39;101169.19;;;1.25;87.77
6778;BME280;3426;52.244;10.534;2022-12-04T07:51:08;101155.59;;;1.81;83.48
6778;BME280;3426;52.244;10.534;2022-12-04T07:53:35;101169.41;;;0.90;87.98
6778;BME280;3426;52.244;10.534;2022-12-04T07:56:06;101154.41;;;1.25;86.17
6778;BME280;3426;52.244;10.534;2022-12-04T07:58:33;101150.94;;;2.09;84.66
6778;BME280;3426;52.244;10.534;2022-12-04T08:03:35;101151.91;;;1.09;86.95
6778;BME280;3426;52.244;10.534;2022-12-04T08:06:05;101145.06;;;0.94;89.06
6778;BME280;3426;52.244;10.534;2022-12-04T08:08:33;101145.66;;;1.29;87.75
6778;BME280;3426;52.244;10.534;2022-12-04T08:11:04;101150.03;;;1.27;88.02
6778;BME280;3426;52.244;10.534;2022-12-04T08:13:31;101136.53;;;1.73;85.64
6778;BME280;3426;52.244;10.534;2022-12-04T08:16:01;101148.47;;;1.00;88.41
6778;BME280;3426;52.244;10.534;2022-12-04T08:18:27;101159.78;;;1.04;88.38
6778;BME280;3426;52.244;10.534;2022-12-04T08:20:54;101175.38;;;1.10;88.53
6778;BME280;3426;52.244;10.534;2022-12-04T08:23:20;101166.34;;;1.54;88.83
6778;BME280;3426;52.244;10.534;2022-12-04T08:25:47;101173.38;;;1.44;88.04
6778;BME280;3426;52.244;10.534;2022-12-04T08:28:13;101165.56;;;1.40;87.72
6778;BME280;3426;52.244;10.534;2022-12-04T08:30:39;101161.50;;;1.02;88.76
6778;BME280;3426;52.244;10.534;2022-12-04T08:33:06;101165.91;;;0.91;89.18
6778;BME280;3426;52.244;10.534;2022-12-04T08:35:32;101174.53;;;1.02;89.53
6778;BME280;3426;52.244;10.534;2022-12-04T08:38:02;101172.59;;;2.19;86.05
6778;BME280;3426;52.244;10.534;2022-12-04T08:40:28;101163.66;;;1.58;86.95
6778;BME280;3426;52.244;10.534;2022-12-04T08:42:55;101161.50;;;2.00;84.35
6778;BME280;3426;52.244;10.534;2022-12-04T08:45:21;101172.88;;;1.95;84.96
6778;BME280;3426;52.244;10.534;2022-12-04T08:47:47;101170.41;;;2.58;82.23
6778;BME280;3426;52.244;10.534;2022-12-04T08:50:18;101175.19;;;2.24;82.10
6778;BME280;3426;52.244;10.534;2022-12-04T08:52:44;101166.09;;;2.55;82.62
6778;BME280;3426;52.244;10.534;2022-12-04T08:55:10;101171.69;;;2.91;81.18
6778;BME280;3426;52.244;10.534;2022-12-04T08:57:37;101187.03;;;3.14;80.58
6778;BME280;3426;52.244;10.534;2022-12-04T09:00:04;101184.53;;;3.08;80.84
6778;BME280;3426;52.244;10.534;2022-12-04T09:02:30;101193.94;;;2.58;80.76
6778;BME280;3426;52.244;10.534;2022-12-04T09:04:57;101181.66;;;2.63;81.32
6778;BME280;3426;52.244;10.534;2022-12-04T09:07:23;101188.00;;;2.44;83.40
6778;BME280;3426;52.244;10.534;2022-12-04T09:09:50;101182.22;;;2.83;80.50
6778;BME280;3426;52.244;10.534;2022-12-04T09:12:16;101176.84;;;2.96;80.33
6778;BME280;3426;52.244;10.534;2022-12-04T09:14:43;101180.16;;;2.45;81.47
6778;BME280;3426;52.244;10.534;2022-12-04T09:17:09;101179.91;;;2.63;80.70
6778;BME280;3426;52.244;10.534;2022-12-04T09:19:36;101175.28;;;2.82;80.81
6778;BME280;3426;52.244;10.534;2022-12-04T09:22:02;101168.28;;;2.17;83.04
6778;BME280;3426;52.244;10.534;2022-12-04T09:24:29;101172.03;;;1.94;86.01
6778;BME280;3426;52.244;10.534;2022-12-04T09:26:56;101174.88;;;1.71;85.42
6778;BME280;3426;52.244;10.534;2022-12-04T09:29:22;101176.31;;;2.71;83.62
6778;BME280;3426;52.244;10.534;2022-12-04T09:31:50;101173.13;;;2.50;82.96
6778;BME280;3426;52.244;10.534;2022-12-04T09:34:17;101170.50;;;2.50;83.07
6778;BME280;3426;52.244;10.534;2022-12-04T09:36:43;101166.16;;;2.48;84.11
6778;BME280;3426;52.244;10.534;2022-12-04T09:39:10;101167.28;;;2.28;83.53
6778;BME280;3426;52.244;10.534;2022-12-04T09:44:40;101163.56;;;1.71;85.95
6778;BME280;3426;52.244;10.534;2022-12-04T09:47:20;101162.59;;;2.53;85.18
6778;BME280;3426;52.244;10.534;2022-12-04T09:50:09;101168.09;;;2.33;84.61
6778;BME280;3426;52.244;10.534;2022-12-04T09:55:05;101160.78;;;1.86;85.20
6778;BME280;3426;52.244;10.534;2022-12-04T09:57:41;101163.03;;;2.20;85.33
6778;BME280;3426;52.244;10.534;2022-12-04T10:00:14;101156.03;;;2.86;82.09
6778;BME280;3426;52.244;10.534;2022-12-04T10:02:45;101169.34;;;2.73;83.69
6778;BME280;3426;52.244;10.534;2022-12-04T10:05:32;101156.91;;;2.22;84.50
6778;BME280;3426;52.244;10.534;2022-12-04T10:08:22;101155.66;;;3.12;80.67
6778;BME280;3426;52.244;10.534;2022-12-04T10:19:17;101156.47;;;2.57;83.83
6778;BME280;3426;52.244;10.534;2022-12-04T10:22:00;101153.81;;;2.59;83.81
6778;BME280;3426;52.244;10.534;2022-12-04T10:27:23;101150.41;;;2.52;84.70
6778;BME280;3426;52.244;10.534;2022-12-04T10:30:27;101156.91;;;2.87;84.14
6778;BME280;3426;52.244;10.534;2022-12-04T10:33:26;101155.44;;;2.00;85.26
6778;BME280;3426;52.244;10.534;2022-12-04T10:35:57;101160.56;;;2.06;85.23
6778;BME280;3426;52.244;10.534;2022-12-04T10:38:33;101156.03;;;2.86;82.94
6778;BME280;3426;52.244;10.534;2022-12-04T10:41:18;101151.78;;;2.81;83.54
6778;BME280;3426;52.244;10.534;2022-12-04T10:43:48;101145.81;;;2.02;85.58
6778;BME280;3426;52.244;10.534;2022-12-04T10:46:27;101149.53;;;2.53;85.92
6778;BME280;3426;52.244;10.534;2022-12-04T10:48:59;101147.69;;;2.60;82.36
6778;BME280;3426;52.244;10.534;2022-12-04T10:51:32;101139.00;;;2.61;84.40
6778;BME280;3426;52.244;10.534;2022-12-04T10:54:00;101133.16;;;2.41;84.25
6778;BME280;3426;52.244;10.534;2022-12-04T10:56:27;101133.09;;;2.45;85.67
6778;BME280;3426;52.244;10.534;2022-12-04T10:59:01;101122.88;;;1.47;87.41
6778;BME280;3426;52.244;10.534;2022-12-04T11:01:30;101127.88;;;1.71;88.44
6778;BME280;3426;52.244;10.534;2022-12-04T11:04:05;101118.44;;;1.56;88.00
6778;BME280;3426;52.244;10.534;2022-12-04T11:06:33;101116.41;;;2.54;85.37
6778;BME280;3426;52.244;10.534;2022-12-04T11:09:02;101116.66;;;1.62;87.05
6778;BME280;3426;52.244;10.534;2022-12-04T11:11:31;101108.34;;;2.04;88.37
6778;BME280;3426;52.244;10.534;2022-12-04T11:14:02;101105.56;;;2.18;87.19
6778;BME280;3426;52.244;10.534;2022-12-04T11:16:38;101106.84;;;1.83;89.26
6778;BME280;3426;52.244;10.534;2022-12-04T11:19:23;101104.22;;;1.83;88.48
6778;BME280;3426;52.244;10.534;2022-12-04T11:21:51;101103.31;;;1.86;89.29
6778;BME280;3426;52.244;10.534;2022-12-04T11:26:49;101099.69;;;1.98;89.16
6778;BME280;3426;52.244;10.534;2022-12-04T11:29:17;101101.13;;;2.23;87.48
6778;BME280;3426;52.244;10.534;2022-12-04T11:31:52;101094.16;;;1.50;90.92
6778;BME280;3426;52.244;10.534;2022-12-04T11:34:23;101093.31;;;1.45;89.97
6778;BME280;3426;52.244;10.534;2022-12-04T11:36:56;101086.69;;;2.61;86.18
6778;BME280;3426;52.244;10.534;2022-12-04T11:39:38;101095.66;;;1.72;89.29
6778;BME280;3426;52.244;10.534;2022-12-04T11:44:39;101096.50;;;2.44;88.35
6778;BME280;3426;52.244;10.534;2022-12-04T11:47:15;101085.59;;;3.28;84.15
6778;BME280;3426;52.244;10.534;2022-12-04T11:49:42;101098.94;;;1.90;87.33
6778;BME280;3426;52.244;10.534;2022-12-04T12:09:58;101088.91;;;2.25;88.68
6778;BME280;3426;52.244;10.534;2022-12-04T12:26:35;101096.38;;;3.10;85.96
6778;BME280;3426;52.244;10.534;2022-12-04T12:34:46;101082.91;;;2.80;87.13
6778;BME280;3426;52.244;10.534;2022-12-04T12:37:20;101077.53;;;2.89;86.04
6778;BME280;3426;52.244;10.534;2022-12-04T12:42:25;101072.19;;;2.37;85.97
6778;BME280;3426;52.244;10.534;2022-12-04T12:45:33;101074.50;;;1.95;88.04
6778;BME280;3426;52.244;10.534;2022-12-04T12:47:54;101063.28;;;3.06;85.11
6778;BME280;3426;52.244;10.534;2022-12-04T12:50:26;101063.38;;;2.46;87.17
6778;BME280;3426;52.244;10.534;2022-12-04T12:53:00;101056.22;;;3.11;84.57
6778;BME280;3426;52.244;10.534;2022-12-04T12:55:44;101070.69;;;2.81;86.28
6778;BME280;3426;52.244;10.534;2022-12-04T12:58:40;101059.84;;;3.04;83.57
6778;BME280;3426;52.244;10.534;2022-12-04T13:01:15;101065.34;;;2.27;85.82
6778;BME280;3426;52.244;10.534;2022-12-04T13:06:23;101054.03;;;3.37;83.68
6778;BME280;3426;52.244;10.534;2022-12-04T13:11:28;101056.09;;;3.66;82.89
6778;BME280;3426;52.244;10.534;2022-12-04T13:14:00;101051.50;;;2.80;84.94
6778;BME280;3426;52.244;10.534;2022-12-04T13:19:15;101047.53;;;2.56;87.77
6778;BME280;3426;52.244;10.534;2022-12-04T13:30:47;101034.78;;;2.35;90.61
6778;BME280;3426;52.244;10.534;2022-12-04T13:39:05;101021.22;;;2.65;88.36
6778;BME280;3426;52.244;10.534;2022-12-04T13:41:36;101034.03;;;2.25;88.69
6778;BME280;3426;52.244;10.534;2022-12-04T13:44:12;101037.00;;;1.98;89.17
6778;BME280;3426;52.244;10.534;2022-12-04T13:46:57;101025.78;;;2.53;89.03
6778;BME280;3426;52.244;10.534;2022-12-04T13:51:55;101027.25;;;2.12;89.60
6778;BME280;3426;52.244;10.534;2022-12-04T13:54:34;101032.03;;;1.79;90.28
6778;BME280;3426;52.244;10.534;2022-12-04T13:57:20;101021.66;;;2.36;88.48
6778;BME280;3426;52.244;10.534;2022-12-04T13:59:48;101024.09;;;2.50;87.90
6778;BME280;3426;52.244;10.534;2022-12-04T14:02:25;101022.16;;;2.01;88.23
6778;BME280;3426;52.244;10.534;2022-12-04T14:05:07;101011.53;;;2.17;89.66
6778;BME280;3426;52.244;10.534;2022-12-04T14:07:39;101010.63;;;2.18;90.05
6778;BME280;3426;52.244;10.534;2022-12-04T14:12:47;101004.19;;;1.78;90.73
6778;BME280;3426;52.244;10.534;2022-12-04T14:15:23;101008.19;;;2.04;89.76
6778;BME280;3426;52.244;10.534;2022-12-04T14:20:31;101005.22;;;1.65;90.91
6778;BME280;3426;52.244;10.534;2022-12-04T14:25:47;101003.22;;;1.85;90.07
6778;BME280;3426;52.244;10.534;2022-12-04T14:31:30;101003.44;;;2.33;88.13
6778;BME280;3426;52.244;10.534;2022-12-04T14:34:02;101001.53;;;2.45;90.01
6778;BME280;3426;52.244;10.534;2022-12-04T14:36:35;101004.38;;;1.63;90.38
6778;BME280;3426;52.244;10.534;2022-12-04T14:41:52;100999.78;;;2.45;90.45
6778;BME280;3426;52.244;10.534;2022-12-04T14:44:30;101000.91;;;1.61;90.81
6778;BME280;3426;52.244;10.534;2022-12-04T14:47:07;101007.66;;;2.95;89.58
6778;BME280;3426;52.244;10.534;2022-12-04T14:52:27;101002.22;;;1.96;91.38
6778;BME280;3426;52.244;10.534;2022-12-04T15:00:56;100995.41;;;2.98;86.96
6778;BME280;3426;52.244;10.534;2022-12-04T15:03:24;100981.72;;;2.82;86.83
6778;BME280;3426;52.244;10.534;2022-12-04T15:06:01;100976.50;;;3.29;85.30
6778;BME280;3426;52.244;10.534;2022-12-04T15:08:27;100986.66;;;2.47;86.47
6778;BME280;3426;52.244;10.534;2022-12-04T15:10:54;100993.66;;;1.84;90.08
6778;BME280;3426;52.244;10.534;2022-12-04T15:13:39;100991.69;;;3.10;86.79
6778;BME280;3426;52.244;10.534;2022-12-04T15:16:16;100989.53;;;1.67;90.52
6778;BME280;3426;52.244;10.534;2022-12-04T15:18:59;100989.94;;;2.59;88.56
6778;BME280;3426;52.244;10.534;2022-12-04T15:21:36;100999.25;;;2.22;89.79
6778;BME280;3426;52.244;10.534;2022-12-04T15:24:16;100992.06;;;2.88;87.90
6778;BME280;3426;52.244;10.534;2022-12-04T15:26:50;100990.06;;;3.04;85.90
6778;BME280;3426;52.244;10.534;2022-12-04T15:29:25;100990.88;;;3.06;85.87
6778;BME280;3426;52.244;10.534;2022-12-04T15:31:55;100998.75;;;3.53;85.37
6778;BME280;3426;52.244;10.534;2022-12-04T15:34:45;100993.41;;;3.57;83.32
6778;BME280;3426;52.244;10.534;2022-12-04T15:37:20;100998.22;;;2.33;87.64
6778;BME280;3426;52.244;10.534;2022-12-04T15:39:49;100997.31;;;2.88;88.22
6778;BME280;3426;52.244;10.534;2022-12-04T15:42:25;100991.09;;;2.96;86.33
6778;BME280;3426;52.244;10.534;2022-12-04T15:44:53;100993.78;;;2.91;88.60
6778;BME280;3426;52.244;10.534;2022-12-04T15:47:31;100993.91;;;2.83;86.05